Time;durP1;ratioP1;P1;durP2;ratioP2;P2;SDS_P1;SDS_P2;PMS_P1;PMS_P2;Temp;Humidity;BMP_temperature;BMP_pressure;BME280_temperature;BME280_humidity;BME280_pressure;Samples;Min_cycle;Max_cycle;Signal;HPM_P1;HPM_P2
2024/03/27 00:02:21;;;;;;;21.25;8.60;;;;;;;9.59;72.20;96582.28;5022444;28;20517;-40
2024/03/27 00:04:47;;;;;;;5.15;2.60;;;;;;;9.44;72.77;96585.69;5019698;28;20112;-40
2024/03/27 00:07:13;;;;;;;4.53;1.90;;;;;;;9.22;72.87;96592.03;5018812;28;20052;-41
2024/03/27 00:09:38;;;;;;;2.30;1.67;;;;;;;8.95;73.38;96598.53;5021036;28;20061;-41
2024/03/27 00:12:04;;;;;;;3.55;2.08;;;;;;;8.80;73.82;96596.75;5016133;28;20617;-44
2024/03/27 00:14:30;;;;;;;2.10;1.45;;;;;;;8.68;73.29;96604.19;5024712;28;20060;-40
2024/03/27 00:16:56;;;;;;;2.70;2.35;;;;;;;8.51;74.10;96596.47;5022240;28;20468;-41
2024/03/27 00:19:21;;;;;;;1.83;1.27;;;;;;;8.41;74.07;96607.22;5018870;28;20061;-40
2024/03/27 00:21:47;;;;;;;2.42;2.08;;;;;;;8.36;74.21;96609.19;5022850;28;20433;-42
2024/03/27 00:24:13;;;;;;;2.05;1.58;;;;;;;8.31;74.47;96608.59;5019472;28;20240;-43
2024/03/27 00:26:39;;;;;;;2.38;1.35;;;;;;;8.26;73.91;96607.97;5016682;28;20041;-41
2024/03/27 00:29:04;;;;;;;2.40;1.08;;;;;;;8.14;74.60;96612.00;5023622;28;20053;-40
2024/03/27 00:31:30;;;;;;;2.90;2.20;;;;;;;8.18;74.64;96606.59;5019064;28;20131;-40
2024/03/27 00:33:57;;;;;;;3.60;1.73;;;;;;;8.19;74.47;96607.44;5020442;28;20096;-42
2024/03/27 00:36:22;;;;;;;2.55;1.30;;;;;;;8.14;73.92;96610.22;5022106;28;20046;-42
2024/03/27 00:38:48;;;;;;;1.42;1.05;;;;;;;8.07;74.68;96614.84;5024626;28;20061;-42
2024/03/27 00:41:14;;;;;;;2.28;1.17;;;;;;;8.07;74.27;96611.47;5027237;28;20045;-42
2024/03/27 00:43:40;;;;;;;1.20;0.75;;;;;;;7.95;73.84;96616.28;5028514;28;20052;-44
2024/03/27 00:46:06;;;;;;;2.53;0.73;;;;;;;7.90;74.82;96618.22;5001688;28;20092;-43
2024/03/27 00:48:32;;;;;;;1.08;0.75;;;;;;;7.92;73.48;96620.72;5018526;28;20053;-41
2024/03/27 00:50:58;;;;;;;2.00;1.20;;;;;;;7.95;72.88;96618.00;5024889;28;20056;-42
2024/03/27 00:53:24;;;;;;;1.17;1.02;;;;;;;7.84;74.10;96609.03;5021297;28;20053;-42
2024/03/27 00:58:31;;;;;;;2.15;1.90;;;;;;;7.77;73.78;96606.84;4998179;28;20408;-41
2024/03/27 01:00:57;;;;;;;3.28;1.17;;;;;;;7.67;74.72;96602.09;4962556;28;20718;-42
2024/03/27 01:03:24;;;;;;;1.63;1.52;;;;;;;7.63;73.92;96595.44;4962952;28;20054;-41
2024/03/27 01:05:49;;;;;;;2.20;1.77;;;;;;;7.65;73.73;96588.47;4947774;28;20065;-42
2024/03/27 01:08:15;;;;;;;1.73;1.63;;;;;;;7.66;74.68;96590.13;4961448;28;21143;-42
2024/03/27 01:10:41;;;;;;;2.47;1.75;;;;;;;7.55;73.64;96579.50;4987004;28;20046;-42
2024/03/27 01:13:07;;;;;;;2.63;2.47;;;;;;;7.45;73.81;96566.22;5001407;28;20078;-41
2024/03/27 01:15:34;;;;;;;1.30;1.20;;;;;;;7.28;74.79;96569.56;4963321;28;20850;-43
2024/03/27 01:18:00;;;;;;;1.60;1.50;;;;;;;7.25;75.08;96538.81;4966911;28;20047;-41
2024/03/27 01:20:27;;;;;;;2.10;2.00;;;;;;;7.07;75.38;96536.19;4962883;28;20059;-41
2024/03/27 01:22:53;;;;;;;1.92;1.83;;;;;;;6.99;75.00;96513.34;4959757;28;20054;-40
2024/03/27 01:25:19;;;;;;;1.63;1.52;;;;;;;6.96;75.27;96502.38;4957945;28;20051;-41
2024/03/27 01:27:45;;;;;;;1.88;1.77;;;;;;;6.96;73.69;96492.94;4992791;28;20077;-41
2024/03/27 01:30:11;;;;;;;1.00;0.98;;;;;;;6.89;73.38;96484.63;4988814;28;20419;-40
2024/03/27 01:32:37;;;;;;;1.70;1.60;;;;;;;6.84;73.10;96488.31;4970454;28;20491;-41
2024/03/27 01:35:03;;;;;;;1.80;1.70;;;;;;;6.75;73.75;96497.31;4967733;28;20058;-43
2024/03/27 01:37:30;;;;;;;1.85;1.75;;;;;;;6.71;74.50;96512.03;4968059;28;20042;-39
2024/03/27 01:39:55;;;;;;;2.88;1.98;;;;;;;6.74;73.73;96529.03;4968688;28;20054;-40
2024/03/27 01:42:21;;;;;;;0.88;0.88;;;;;;;6.71;74.38;96554.91;4954361;28;21403;-39
2024/03/27 01:44:47;;;;;;;1.25;1.15;;;;;;;6.75;73.88;96556.47;4946206;28;20078;-41
2024/03/27 01:47:21;;;;;;;2.05;1.85;;;;;;;6.74;73.57;96554.78;4954976;28;20098;-41
2024/03/27 01:49:47;;;;;;;2.05;1.90;;;;;;;6.68;73.73;96574.72;4954582;28;20055;-42
2024/03/27 01:52:13;;;;;;;2.05;1.60;;;;;;;6.75;73.42;96583.00;4958812;28;20047;-40
2024/03/27 01:54:39;;;;;;;1.27;1.27;;;;;;;6.74;73.46;96586.47;4951702;28;20047;-40
2024/03/27 01:57:06;;;;;;;1.70;1.60;;;;;;;6.79;73.03;96588.84;4942405;28;20047;-39
2024/03/27 01:59:33;;;;;;;2.15;1.95;;;;;;;6.78;73.19;96600.03;4946801;28;20059;-43
2024/03/27 02:01:59;;;;;;;2.72;2.55;;;;;;;6.76;74.01;96594.13;4953912;28;20054;-42
2024/03/27 02:04:26;;;;;;;1.83;1.73;;;;;;;6.76;73.49;96600.09;4958495;28;20085;-42
2024/03/27 02:06:53;;;;;;;1.70;1.60;;;;;;;6.73;74.22;96599.41;4955014;28;20054;-41
2024/03/27 02:09:20;;;;;;;2.00;1.80;;;;;;;6.76;73.85;96604.41;4925896;28;20051;-42
2024/03/27 02:11:46;;;;;;;2.08;1.88;;;;;;;6.77;74.61;96601.78;4946179;28;20051;-39
2024/03/27 02:14:14;;;;;;;1.83;0.88;;;;;;;6.74;73.61;96606.22;4946648;29;20418;-39
2024/03/27 02:16:40;;;;;;;3.28;3.08;;;;;;;6.76;73.33;96604.41;4930460;29;20039;-40
2024/03/27 02:19:06;;;;;;;3.28;2.20;;;;;;;6.80;74.55;96593.09;4949494;28;20919;-40
2024/03/27 02:21:33;;;;;;;2.10;1.85;;;;;;;6.80;72.97;96599.06;4943747;29;20039;-42
2024/03/27 02:26:35;;;;;;;2.33;0.93;;;;;;;6.79;74.97;96614.59;5069354;27;20403;-42
2024/03/27 02:29:01;;;;;;;1.65;0.88;;;;;;;6.78;74.46;96624.03;5014455;28;20046;-41
2024/03/27 02:31:28;;;;;;;4.43;3.13;;;;;;;6.79;73.94;96620.53;5019656;28;20053;-44
2024/03/27 02:33:53;;;;;;;2.92;2.72;;;;;;;6.77;73.81;96606.94;5035231;28;20053;-40
2024/03/27 02:36:19;;;;;;;2.83;1.50;;;;;;;6.78;74.60;96602.59;5024921;28;20196;-41
2024/03/27 02:38:45;;;;;;;2.33;1.30;;;;;;;6.75;75.70;96590.72;5032669;28;20132;-41
2024/03/27 02:41:11;;;;;;;3.35;3.05;;;;;;;6.73;75.57;96584.81;5028640;28;20084;-42
2024/03/27 02:43:36;;;;;;;1.42;0.70;;;;;;;6.72;75.58;96566.88;5027415;28;20051;-40
2024/03/27 02:46:02;;;;;;;3.30;3.00;;;;;;;6.73;75.02;96555.69;5036073;28;20122;-39
2024/03/27 02:48:28;;;;;;;2.70;1.70;;;;;;;6.72;75.52;96556.59;5027573;28;20485;-40
2024/03/27 02:50:53;;;;;;;3.17;1.58;;;;;;;6.69;75.62;96542.94;5030207;28;20120;-39
2024/03/27 02:53:19;;;;;;;1.52;0.90;;;;;;;6.71;75.84;96545.44;5023778;28;20057;-42
2024/03/27 02:55:45;;;;;;;6.22;3.55;;;;;;;6.75;74.39;96546.16;5021341;28;20084;-40
2024/03/27 02:58:11;;;;;;;2.60;1.13;;;;;;;6.77;75.77;96536.63;5023516;28;20768;-41
2024/03/27 03:00:36;;;;;;;4.18;2.80;;;;;;;6.78;75.67;96541.72;5032657;28;20567;-40
2024/03/27 03:03:02;;;;;;;3.33;3.03;;;;;;;6.76;75.63;96532.41;5024937;28;20498;-40
2024/03/27 03:05:28;;;;;;;1.90;1.00;;;;;;;6.75;74.23;96526.41;5027378;28;20062;-39
2024/03/27 03:07:54;;;;;;;3.45;3.15;;;;;;;6.79;75.59;96514.25;5033313;28;20076;-41
2024/03/27 03:10:19;;;;;;;2.90;2.42;;;;;;;6.79;74.25;96512.50;5028246;28;20440;-41
2024/03/27 03:12:45;;;;;;;2.83;2.53;;;;;;;6.79;73.67;96522.78;5033002;28;20045;-40
2024/03/27 03:15:11;;;;;;;5.75;2.63;;;;;;;6.79;74.00;96519.41;5032648;28;20056;-41
2024/03/27 03:17:36;;;;;;;3.35;3.00;;;;;;;6.77;74.72;96516.91;5033023;28;20075;-42
2024/03/27 03:20:04;;;;;;;3.55;2.97;;;;;;;6.76;74.59;96501.53;5039386;28;20055;-41
2024/03/27 03:22:30;;;;;;;2.67;1.20;;;;;;;6.72;74.93;96489.72;5028116;28;20095;-42
2024/03/27 03:24:56;;;;;;;3.90;2.35;;;;;;;6.66;74.86;96471.06;5028284;28;20519;-40
2024/03/27 03:27:22;;;;;;;3.08;2.45;;;;;;;6.60;73.42;96481.63;5034828;28;20041;-40
2024/03/27 03:29:47;;;;;;;3.00;1.67;;;;;;;6.56;75.06;96490.41;5027765;28;20133;-40
2024/03/27 03:32:13;;;;;;;5.40;3.42;;;;;;;6.51;74.73;96497.44;5037692;28;20061;-41
2024/03/27 03:34:39;;;;;;;4.68;4.18;;;;;;;6.45;74.68;96498.56;5032346;28;20048;-40
2024/03/27 03:37:05;;;;;;;4.18;3.05;;;;;;;6.39;73.82;96493.69;5015392;28;20756;-41
2024/03/27 03:39:31;;;;;;;4.10;3.72;;;;;;;6.33;74.34;96502.50;5017381;28;20057;-41
2024/03/27 03:41:56;;;;;;;3.80;2.90;;;;;;;6.30;74.89;96494.91;5004550;28;20088;-41
2024/03/27 03:44:22;;;;;;;2.53;1.10;;;;;;;6.26;73.95;96503.66;5019633;28;20195;-41
2024/03/27 03:46:48;;;;;;;4.15;1.20;;;;;;;6.21;74.55;96506.41;5023633;28;20160;-40
2024/03/27 03:49:13;;;;;;;3.00;2.80;;;;;;;6.14;75.63;96505.84;5024622;28;21773;-42
2024/03/27 03:51:40;;;;;;;3.42;1.65;;;;;;;6.12;74.57;96499.94;5017578;28;20380;-41
2024/03/27 03:54:07;;;;;;;4.13;2.83;;;;;;;6.13;74.25;96491.34;5018441;28;20325;-39
2024/03/27 03:56:33;;;;;;;3.55;3.08;;;;;;;6.08;74.69;96498.38;5016015;28;20526;-39
2024/03/27 03:58:58;;;;;;;2.05;1.15;;;;;;;6.05;75.15;96501.09;5015394;28;20059;-41
2024/03/27 04:01:24;;;;;;;4.68;4.38;;;;;;;6.01;75.39;96499.53;5017705;28;20546;-40
2024/03/27 04:03:50;;;;;;;3.50;2.38;;;;;;;6.00;75.36;96502.97;5018112;28;20034;-42
2024/03/27 04:06:15;;;;;;;1.88;1.70;;;;;;;5.99;75.06;96506.47;5022555;28;20041;-40
2024/03/27 04:08:41;;;;;;;2.30;0.77;;;;;;;6.02;75.92;96511.47;5018380;28;20056;-42
2024/03/27 04:11:07;;;;;;;2.58;2.38;;;;;;;6.03;76.67;96515.72;5025597;28;20139;-40
2024/03/27 04:13:33;;;;;;;2.92;2.15;;;;;;;6.11;76.50;96505.97;5018697;28;20053;-42
2024/03/27 04:16:01;;;;;;;2.90;2.38;;;;;;;6.14;75.76;96502.44;5022241;28;20132;-41
2024/03/27 04:18:27;;;;;;;2.90;1.15;;;;;;;6.15;75.78;96507.50;5009161;28;20472;-41
2024/03/27 04:20:53;;;;;;;2.80;2.33;;;;;;;6.19;76.91;96507.38;5022545;28;20055;-41
2024/03/27 04:23:19;;;;;;;3.72;3.42;;;;;;;6.15;76.25;96499.81;5020154;28;20058;-41
2024/03/27 04:25:50;;;;;;;2.63;2.42;;;;;;;6.22;76.59;96502.13;5014121;28;20092;-42
2024/03/27 04:28:16;;;;;;;2.53;2.33;;;;;;;6.20;76.90;96488.50;4986604;28;20064;-41
2024/03/27 04:30:42;;;;;;;1.65;0.75;;;;;;;6.23;76.46;96485.81;5003691;28;20406;-40
2024/03/27 04:33:09;;;;;;;2.10;1.92;;;;;;;6.21;77.72;96491.00;5007005;28;20493;-42
2024/03/27 04:35:35;;;;;;;2.80;0.55;;;;;;;6.24;76.86;96490.88;5019287;28;20053;-40
2024/03/27 04:38:01;;;;;;;3.63;1.23;;;;;;;6.23;77.73;96478.09;5017140;28;20360;-40
2024/03/27 04:40:26;;;;;;;2.67;2.05;;;;;;;6.17;78.68;96484.31;5020246;28;20937;-41
2024/03/27 04:42:52;;;;;;;2.38;2.17;;;;;;;6.22;78.11;96484.97;5019742;28;20046;-43
2024/03/27 04:45:18;;;;;;;1.33;0.60;;;;;;;6.26;77.07;96483.09;5008670;28;20050;-42
2024/03/27 04:47:44;;;;;;;3.47;3.17;;;;;;;6.24;77.09;96490.03;5024349;28;20057;-41
2024/03/27 04:50:09;;;;;;;2.50;0.75;;;;;;;6.22;77.91;96491.84;5022284;28;20053;-40
2024/03/27 04:52:35;;;;;;;2.58;2.30;;;;;;;6.20;78.16;96485.94;5005540;28;20088;-42
2024/03/27 04:55:03;;;;;;;2.22;2.03;;;;;;;6.25;76.93;96486.59;5021835;28;20046;-40
2024/03/27 04:57:30;;;;;;;3.17;2.80;;;;;;;6.26;77.60;96478.81;5012777;28;20647;-43
2024/03/27 04:59:56;;;;;;;2.65;2.45;;;;;;;6.28;76.70;96481.28;5015293;28;20054;-39
2024/03/27 05:02:21;;;;;;;4.07;3.78;;;;;;;6.30;77.59;96484.63;5021306;28;20069;-42
2024/03/27 05:04:47;;;;;;;1.75;1.02;;;;;;;6.27;76.86;96490.75;5004195;28;20465;-41
2024/03/27 05:07:13;;;;;;;3.15;2.35;;;;;;;6.26;77.95;96483.94;5015628;28;20057;-42
2024/03/27 05:09:38;;;;;;;3.28;3.08;;;;;;;6.29;77.54;96473.50;5012397;28;20051;-41
2024/03/27 05:12:04;;;;;;;5.55;3.83;;;;;;;6.28;77.76;96474.41;5014437;28;20045;-43
2024/03/27 05:14:30;;;;;;;1.98;1.02;;;;;;;6.27;77.71;96469.34;4998574;28;20511;-42
2024/03/27 05:16:56;;;;;;;2.03;0.90;;;;;;;6.21;77.19;96467.88;5015974;28;20287;-40
2024/03/27 05:19:23;;;;;;;2.47;2.25;;;;;;;6.18;77.68;96460.28;5011268;28;20117;-40
2024/03/27 05:21:50;;;;;;;2.83;1.13;;;;;;;6.07;77.36;96460.75;5006214;28;20418;-41
2024/03/27 05:24:16;;;;;;;2.22;2.03;;;;;;;6.03;76.82;96466.91;5011253;28;20050;-41
2024/03/27 05:26:42;;;;;;;3.20;3.00;;;;;;;5.99;77.66;96465.34;5015356;28;20586;-39
2024/03/27 05:29:09;;;;;;;2.55;2.35;;;;;;;5.91;78.09;96470.78;5018580;28;20107;-41
2024/03/27 05:31:52;;;;;;;3.03;2.80;;;;;;;5.82;78.42;96469.47;5017457;28;20057;-41
2024/03/27 05:34:19;;;;;;;3.58;2.55;;;;;;;5.77;79.08;96468.81;5011331;28;20604;-39
2024/03/27 05:36:44;;;;;;;3.67;3.03;;;;;;;5.71;79.40;96471.63;5014636;28;20133;-40
2024/03/27 05:39:10;;;;;;;2.65;2.35;;;;;;;5.68;79.29;96461.50;5001907;28;20499;-40
2024/03/27 05:41:37;;;;;;;3.58;3.28;;;;;;;5.68;79.64;96451.22;5016834;28;20108;-41
2024/03/27 05:44:04;;;;;;;2.97;2.67;;;;;;;5.70;79.98;96449.41;4998423;28;20057;-41
2024/03/27 05:46:31;;;;;;;2.95;2.35;;;;;;;5.68;79.32;96438.38;5013992;28;20075;-40
2024/03/27 05:48:57;;;;;;;2.28;0.90;;;;;;;5.65;79.36;96432.47;5015206;28;20328;-42
2024/03/27 05:51:25;;;;;;;3.78;1.23;;;;;;;5.68;79.10;96430.69;5022405;28;20536;-40
2024/03/27 05:53:52;;;;;;;3.22;2.80;;;;;;;5.65;79.32;96442.72;5013221;28;20053;-40
2024/03/27 05:56:17;;;;;;;3.33;2.72;;;;;;;5.64;79.94;96446.19;5008819;28;20057;-39
2024/03/27 05:58:43;;;;;;;1.73;1.23;;;;;;;5.65;79.17;96440.16;5023401;28;20057;-39
2024/03/27 06:01:09;;;;;;;4.63;3.30;;;;;;;5.62;81.05;96436.91;5018122;28;20052;-40
2024/03/27 06:03:35;;;;;;;4.15;2.88;;;;;;;5.64;80.93;96429.97;5022089;28;20053;-41
2024/03/27 06:06:00;;;;;;;3.30;3.00;;;;;;;5.62;80.96;96422.34;5023103;28;20110;-42
2024/03/27 06:08:26;;;;;;;3.95;2.90;;;;;;;5.64;81.06;96422.28;5023420;28;20054;-40
2024/03/27 06:10:52;;;;;;;4.50;2.05;;;;;;;5.66;80.81;96425.59;5012885;28;20808;-41
2024/03/27 06:13:18;;;;;;;2.78;2.47;;;;;;;5.64;80.19;96435.13;5017381;28;20073;-40
2024/03/27 06:15:44;;;;;;;3.67;3.08;;;;;;;5.66;80.66;96425.59;4993282;28;20100;-41
2024/03/27 06:18:11;;;;;;;4.90;2.83;;;;;;;5.68;81.15;96420.41;5012752;28;20057;-40
2024/03/27 06:20:37;;;;;;;7.00;3.35;;;;;;;5.72;81.08;96416.81;5011865;28;20062;-41
2024/03/27 06:23:04;;;;;;;2.08;1.88;;;;;;;5.76;81.31;96413.22;5011014;28;20053;-40
2024/03/27 06:25:29;;;;;;;3.30;2.53;;;;;;;5.76;81.19;96413.22;5013483;28;20049;-41
2024/03/27 06:27:55;;;;;;;1.50;0.98;;;;;;;5.77;81.46;96414.88;4998876;28;20142;-41
2024/03/27 06:30:21;;;;;;;3.10;2.55;;;;;;;5.80;81.23;96409.63;5021405;28;20049;-40
2024/03/27 06:32:46;;;;;;;6.85;3.00;;;;;;;5.87;79.31;96413.59;5015994;28;20062;-41
2024/03/27 06:35:12;;;;;;;2.58;2.38;;;;;;;5.86;80.46;96409.38;5019118;28;20056;-41
2024/03/27 06:37:38;;;;;;;5.32;2.20;;;;;;;5.90;79.42;96410.91;5011863;28;20034;-41
2024/03/27 06:40:04;;;;;;;2.15;1.00;;;;;;;5.90;80.49;96416.03;5013659;28;20557;-45
2024/03/27 06:42:30;;;;;;;3.53;2.10;;;;;;;5.92;80.84;96421.13;5019138;28;20071;-40
2024/03/27 06:44:56;;;;;;;2.42;2.22;;;;;;;5.86;80.71;96414.50;5008023;28;20470;-40
2024/03/27 06:47:26;;;;;;;3.75;2.45;;;;;;;5.92;81.14;96424.50;5017929;28;20060;-42
2024/03/27 06:49:52;;;;;;;3.85;2.08;;;;;;;5.90;80.08;96416.03;5033633;28;20485;-41
2024/03/27 06:52:19;;;;;;;1.58;1.48;;;;;;;5.90;80.32;96412.63;5013048;28;20060;-40
2024/03/27 06:54:48;;;;;;;2.45;0.68;;;;;;;5.88;79.62;96412.69;5019268;28;20045;-41
2024/03/27 06:57:15;;;;;;;2.63;2.35;;;;;;;5.92;80.81;96416.78;4995791;28;20049;-40
2024/03/27 06:59:40;;;;;;;2.70;2.40;;;;;;;5.95;80.07;96407.31;5019077;28;20065;-40
2024/03/27 07:02:06;;;;;;;3.72;2.13;;;;;;;5.98;79.22;96408.00;5022153;28;20080;-42
2024/03/27 07:04:32;;;;;;;2.63;0.93;;;;;;;5.96;80.61;96416.66;5019072;28;24211;-40
2024/03/27 07:06:58;;;;;;;6.80;3.75;;;;;;;6.06;79.94;96417.16;5004774;28;20054;-41
2024/03/27 07:09:25;;;;;;;2.65;2.28;;;;;;;6.06;79.68;96415.41;5013429;28;20053;-44
2024/03/27 07:11:51;;;;;;;3.17;2.97;;;;;;;6.15;79.43;96415.00;5013190;28;20052;-40
2024/03/27 07:14:18;;;;;;;4.68;2.60;;;;;;;6.21;80.07;96418.22;5009015;28;20064;-42
2024/03/27 07:16:44;;;;;;;7.65;1.95;;;;;;;6.28;80.35;96420.44;5004457;28;20070;-40
2024/03/27 07:19:10;;;;;;;2.13;1.58;;;;;;;6.60;79.99;96419.94;5021838;28;20049;-42
2024/03/27 07:21:36;;;;;;;1.52;0.63;;;;;;;7.44;80.15;96425.50;5014623;28;20084;-41
2024/03/27 07:24:02;;;;;;;5.18;2.78;;;;;;;8.34;77.59;96422.78;5022980;28;20045;-41
2024/03/27 07:26:32;;;;;;;3.70;1.25;;;;;;;9.04;74.44;96423.44;5019899;28;20046;-40
2024/03/27 07:28:58;;;;;;;3.05;2.75;;;;;;;9.55;72.57;96422.38;5017807;28;20057;-40
2024/03/27 07:31:23;;;;;;;4.57;1.33;;;;;;;10.03;71.24;96427.34;5023797;28;20064;-42
2024/03/27 07:33:49;;;;;;;4.57;2.58;;;;;;;10.52;69.74;96413.28;4998134;28;20057;-42
2024/03/27 07:36:15;;;;;;;2.65;2.45;;;;;;;10.99;68.64;96425.13;5014902;28;20084;-41
2024/03/27 07:38:41;;;;;;;1.58;0.75;;;;;;;11.35;66.33;96421.13;5024433;28;20413;-40
2024/03/27 07:41:06;;;;;;;3.03;2.75;;;;;;;11.83;67.24;96425.78;5020941;28;20069;-41
2024/03/27 07:43:32;;;;;;;4.00;1.00;;;;;;;12.31;66.41;96421.81;5020370;28;20052;-41
2024/03/27 07:46:04;;;;;;;3.63;0.82;;;;;;;12.53;64.36;96433.31;5021892;28;20129;-39
2024/03/27 07:48:29;;;;;;;2.92;1.80;;;;;;;12.95;63.38;96427.00;5014746;28;20503;-40
2024/03/27 07:50:55;;;;;;;4.75;1.02;;;;;;;13.31;62.46;96427.88;5020891;28;20053;-42
2024/03/27 07:53:21;;;;;;;1.42;0.52;;;;;;;13.49;61.37;96430.13;5021472;28;20495;-41
2024/03/27 07:55:53;;;;;;;4.22;0.77;;;;;;;13.68;60.55;96434.81;5020764;28;20045;-41
2024/03/27 07:58:19;;;;;;;9.73;1.02;;;;;;;13.42;60.09;96445.31;5019983;28;20049;-41
2024/03/27 08:00:45;;;;;;;2.78;0.95;;;;;;;13.24;59.44;96443.09;5012941;28;20053;-38
2024/03/27 08:03:10;;;;;;;2.33;0.95;;;;;;;13.39;60.11;96440.34;5019359;28;20049;-40
2024/03/27 08:05:36;;;;;;;2.20;0.77;;;;;;;13.58;59.69;96444.25;5023695;28;20131;-40
2024/03/27 08:08:02;;;;;;;3.38;0.77;;;;;;;13.80;59.57;96448.69;5023382;28;20049;-38
2024/03/27 08:10:29;;;;;;;1.38;0.82;;;;;;;13.68;58.60;96447.00;5011681;28;20528;-41
2024/03/27 08:12:55;;;;;;;2.90;0.60;;;;;;;13.04;58.09;96447.09;5021634;28;20601;-39
2024/03/27 08:15:20;;;;;;;7.38;1.67;;;;;;;13.01;58.55;96452.53;5017859;28;20152;-41
2024/03/27 08:17:46;;;;;;;4.05;1.30;;;;;;;12.55;59.73;96441.81;5014169;28;20054;-44
2024/03/27 08:20:12;;;;;;;3.17;2.30;;;;;;;12.32;60.02;96435.59;5021654;28;20450;-43
2024/03/27 08:22:37;;;;;;;5.25;0.90;;;;;;;12.17;60.50;96438.31;5021475;28;20103;-42
2024/03/27 08:25:03;;;;;;;3.28;0.77;;;;;;;12.32;61.07;96435.59;5023095;28;20041;-42
2024/03/27 08:27:29;;;;;;;3.78;0.95;;;;;;;12.94;60.62;96433.94;5019839;28;20041;-42
2024/03/27 08:29:55;;;;;;;5.47;1.10;;;;;;;13.19;59.46;96444.38;5021074;28;20104;-39
2024/03/27 08:32:20;;;;;;;3.67;0.60;;;;;;;13.65;58.61;96439.41;5022474;28;20061;-39
2024/03/27 08:34:46;;;;;;;3.08;0.77;;;;;;;13.92;57.96;96435.72;5018397;28;20510;-40
2024/03/27 08:37:12;;;;;;;3.70;0.80;;;;;;;13.33;57.90;96420.81;5023820;28;20076;-40
2024/03/27 08:39:37;;;;;;;2.67;0.63;;;;;;;12.96;57.97;96428.66;5022702;28;20053;-41
2024/03/27 08:42:03;;;;;;;4.05;0.80;;;;;;;13.27;59.29;96426.44;5019178;28;20111;-40
2024/03/27 08:44:29;;;;;;;3.85;0.77;;;;;;;13.19;58.20;96413.19;5019975;28;20507;-42
2024/03/27 08:46:55;;;;;;;3.33;1.13;;;;;;;13.20;58.09;96414.84;5022107;28;20039;-40
2024/03/27 08:49:20;;;;;;;2.17;0.80;;;;;;;13.07;57.85;96420.91;5019530;28;20056;-41
2024/03/27 08:51:46;;;;;;;3.78;0.65;;;;;;;13.07;58.65;96423.53;5018771;28;20503;-41
2024/03/27 08:54:12;;;;;;;1.88;1.02;;;;;;;13.27;58.82;96412.66;5021358;28;20570;-40
2024/03/27 08:56:38;;;;;;;2.20;0.40;;;;;;;13.10;58.23;96414.66;5011765;28;20058;-39
2024/03/27 08:59:04;;;;;;;2.53;0.65;;;;;;;13.04;57.26;96410.75;5018270;28;20045;-40
2024/03/27 09:01:30;;;;;;;2.10;0.57;;;;;;;13.16;58.08;96408.22;5012011;28;20042;-40
2024/03/27 09:03:56;;;;;;;2.55;0.88;;;;;;;13.09;57.79;96407.81;5022860;28;20057;-42
2024/03/27 09:06:22;;;;;;;5.00;0.70;;;;;;;12.67;56.87;96408.16;5019241;28;20091;-42
2024/03/27 09:08:47;;;;;;;1.85;0.57;;;;;;;12.64;57.23;96405.78;5019719;28;20061;-40
2024/03/27 09:11:13;;;;;;;2.63;0.77;;;;;;;12.17;57.71;96409.78;5022519;28;20057;-39
2024/03/27 09:13:41;;;;;;;2.50;0.90;;;;;;;12.27;58.23;96410.00;5016859;28;20141;-43
2024/03/27 09:16:07;;;;;;;1.65;0.75;;;;;;;12.74;58.50;96406.81;5017812;28;20091;-40
2024/03/27 09:18:34;;;;;;;2.42;0.60;;;;;;;13.13;56.94;96403.25;5002894;28;20387;-45
2024/03/27 09:21:00;;;;;;;1.90;0.63;;;;;;;13.50;56.28;96400.59;5019813;28;20056;-41
2024/03/27 09:23:27;;;;;;;3.63;1.27;;;;;;;13.73;54.08;96401.50;5008987;28;20058;-42
2024/03/27 09:25:55;;;;;;;2.50;0.80;;;;;;;13.96;54.71;96413.72;5001458;28;20052;-40
2024/03/27 09:28:21;;;;;;;0.85;0.55;;;;;;;13.90;53.56;96412.41;5017233;28;20045;-39
2024/03/27 09:30:48;;;;;;;1.85;0.52;;;;;;;13.46;54.32;96399.13;5012170;28;20049;-41
2024/03/27 09:33:14;;;;;;;4.10;0.80;;;;;;;13.70;54.16;96411.28;5017871;28;20045;-40
2024/03/27 09:35:42;;;;;;;2.20;0.60;;;;;;;13.29;53.48;96416.78;4996975;28;20056;-40
2024/03/27 09:38:08;;;;;;;0.98;0.57;;;;;;;13.03;54.61;96419.47;5015192;28;20057;-40
2024/03/27 09:40:55;;;;;;;1.05;0.43;;;;;;;12.82;54.31;96422.66;5022192;28;20096;-42
2024/03/27 09:43:22;;;;;;;1.38;0.63;;;;;;;13.07;54.82;96409.72;4999992;28;20045;-41
2024/03/27 09:45:48;;;;;;;3.60;0.73;;;;;;;12.91;54.18;96412.56;5004858;28;20057;-41
2024/03/27 09:48:13;;;;;;;1.65;0.38;;;;;;;13.15;53.57;96406.56;5006652;28;20042;-41
2024/03/27 09:50:39;;;;;;;3.00;0.50;;;;;;;13.37;53.17;96405.81;5021218;28;20073;-42
2024/03/27 09:53:07;;;;;;;3.90;0.57;;;;;;;13.55;52.13;96408.06;5014726;28;20092;-40
2024/03/27 09:55:34;;;;;;;0.57;0.35;;;;;;;13.54;53.60;96402.03;5017725;28;20050;-44
2024/03/27 09:58:05;;;;;;;3.33;0.32;;;;;;;13.54;51.99;96407.22;5011555;28;20041;-40
2024/03/27 10:00:33;;;;;;;2.15;0.70;;;;;;;13.44;52.90;96403.63;5011349;28;20050;-41
2024/03/27 10:03:00;;;;;;;1.30;0.77;;;;;;;13.47;51.69;96390.38;5017834;28;20490;-41
2024/03/27 10:05:27;;;;;;;1.13;0.47;;;;;;;13.29;52.55;96393.41;5015220;28;20053;-41
2024/03/27 10:07:53;;;;;;;3.25;0.93;;;;;;;13.32;51.96;96403.59;5021078;28;20041;-44
2024/03/27 10:10:19;;;;;;;2.28;0.75;;;;;;;13.52;52.53;96408.28;5012602;28;20065;-41
2024/03/27 10:12:45;;;;;;;1.05;0.95;;;;;;;13.36;52.21;96399.81;5023291;28;20649;-41
2024/03/27 10:15:11;;;;;;;1.02;0.93;;;;;;;13.11;52.18;96404.16;5015109;28;20051;-43
2024/03/27 10:17:37;;;;;;;1.23;1.08;;;;;;;12.98;52.59;96406.00;5011992;28;20079;-42
2024/03/27 10:20:05;;;;;;;4.65;1.23;;;;;;;13.06;52.69;96411.47;5014434;28;20068;-41
2024/03/27 10:22:32;;;;;;;1.48;0.52;;;;;;;12.87;52.06;96390.34;5015381;28;20046;-40
2024/03/27 10:24:58;;;;;;;1.55;0.90;;;;;;;12.89;53.62;96398.84;5011508;28;20060;-39
2024/03/27 10:27:23;;;;;;;1.60;0.95;;;;;;;12.59;53.84;96396.56;4999576;28;20502;-42
2024/03/27 10:29:49;;;;;;;2.30;0.90;;;;;;;12.57;53.50;96403.59;5010690;28;20518;-42
2024/03/27 10:32:15;;;;;;;0.88;0.50;;;;;;;12.43;54.13;96406.34;5012328;28;20068;-42
2024/03/27 10:34:42;;;;;;;1.90;0.95;;;;;;;12.32;54.35;96394.09;4997523;28;20520;-42
2024/03/27 10:37:11;;;;;;;3.28;0.82;;;;;;;12.39;53.65;96400.50;5013020;28;20057;-41
2024/03/27 10:39:44;;;;;;;0.60;0.40;;;;;;;12.57;54.73;96402.78;5013606;28;20049;-41
2024/03/27 10:42:15;;;;;;;1.08;0.68;;;;;;;12.47;52.23;96397.41;5000529;28;20421;-41
2024/03/27 10:44:45;;;;;;;1.23;0.60;;;;;;;12.30;53.84;96401.97;5006820;28;20066;-39
2024/03/27 10:47:13;;;;;;;2.50;0.68;;;;;;;12.21;53.75;96400.84;5021657;28;20068;-44
2024/03/27 10:49:41;;;;;;;0.93;0.70;;;;;;;12.08;53.70;96397.44;5025878;28;20434;-41
2024/03/27 10:52:08;;;;;;;8.75;1.40;;;;;;;11.69;54.08;96392.19;5019239;28;20127;-42
2024/03/27 10:54:35;;;;;;;1.90;0.70;;;;;;;11.57;54.13;96410.22;5019563;28;20057;-43
2024/03/27 10:57:03;;;;;;;3.90;0.88;;;;;;;11.55;54.68;96400.88;4990122;28;20042;-42
2024/03/27 10:59:30;;;;;;;1.27;0.52;;;;;;;11.30;54.84;96398.13;5016696;28;20498;-42
2024/03/27 11:02:03;;;;;;;1.88;0.93;;;;;;;11.28;55.45;96381.84;5017441;28;20061;-41
2024/03/27 11:04:31;;;;;;;0.77;0.50;;;;;;;11.14;55.67;96377.53;5018896;28;20057;-45
2024/03/27 11:06:57;;;;;;;1.17;0.40;;;;;;;10.95;55.74;96388.25;5027951;28;20564;-44
2024/03/27 11:09:23;;;;;;;2.10;0.40;;;;;;;10.93;56.04;96384.91;5026450;28;20049;-43
2024/03/27 11:11:50;;;;;;;2.10;0.60;;;;;;;11.10;55.65;96385.59;5008961;28;20526;-43
2024/03/27 11:14:18;;;;;;;1.75;0.70;;;;;;;11.39;56.38;96388.91;5022615;28;20108;-45
2024/03/27 11:16:50;;;;;;;1.20;0.90;;;;;;;11.53;56.90;96374.22;5007605;28;20049;-44
2024/03/27 11:19:16;;;;;;;2.88;0.45;;;;;;;11.54;56.85;96383.66;5029172;28;20084;-42
2024/03/27 11:21:42;;;;;;;1.13;0.47;;;;;;;11.53;56.88;96362.09;5027479;28;20076;-45
2024/03/27 11:24:11;;;;;;;2.53;0.73;;;;;;;11.35;56.81;96379.66;5018374;28;20803;-42
2024/03/27 11:26:37;;;;;;;3.53;0.80;;;;;;;11.17;56.55;96400.66;5022528;28;20057;-42
2024/03/27 11:29:05;;;;;;;1.30;0.70;;;;;;;11.14;57.67;96428.50;5027827;28;20525;-43
2024/03/27 11:31:46;;;;;;;0.45;0.45;;;;;;;10.89;57.73;96440.41;5026642;28;20050;-44
2024/03/27 11:34:12;;;;;;;0.40;0.30;;;;;;;10.33;58.81;96456.69;5014000;28;20054;-45
2024/03/27 11:36:37;;;;;;;0.60;0.50;;;;;;;10.25;59.23;96462.31;5028826;28;20060;-42
2024/03/27 11:39:03;;;;;;;0.20;0.20;;;;;;;9.75;59.76;96476.31;5027249;28;20072;-40
2024/03/27 11:41:30;;;;;;;0.65;0.65;;;;;;;9.38;60.50;96473.22;5017577;28;20411;-44